Time;durP1;ratioP1;P1;durP2;ratioP2;P2;SDS_P1;SDS_P2;PMS_P1;PMS_P2;Temp;Humidity;BMP_temperature;BMP_pressure;BME280_temperature;BME280_humidity;BME280_pressure;Samples;Min_cycle;Max_cycle;Signal;HPM_P1;HPM_P2
2021/10/04 00:02:05;;;;;;;5.53;1.10;;;11.20;99.90;;;12.21;97.50;100247.84;6094919;23;19998;-87
2021/10/04 00:04:32;;;;;;;1.60;0.93;;;11.20;99.90;;;12.11;97.99;100246.50;6118603;23;20006;-87
2021/10/04 00:06:58;;;;;;;3.95;0.70;;;11.20;99.90;;;12.15;97.83;100260.56;6082776;23;20038;-86
2021/10/04 00:09:25;;;;;;;1.05;0.70;;;11.10;99.90;;;12.15;98.18;100260.56;6082759;23;20070;-88
2021/10/04 00:11:53;;;;;;;3.53;1.00;;;11.20;99.90;;;12.27;97.23;100260.31;6082979;23;20062;-89
2021/10/04 00:14:20;;;;;;;1.40;0.70;;;11.30;99.90;;;12.27;97.20;100271.53;6108819;23;20037;-88
2021/10/04 00:16:50;;;;;;;1.23;0.70;;;11.20;99.90;;;12.31;97.28;100268.78;6083119;23;20038;-86
2021/10/04 00:19:17;;;;;;;3.55;0.70;;;11.30;99.90;;;12.34;96.86;100270.81;6082401;23;20026;-86
2021/10/04 00:21:43;;;;;;;1.75;0.65;;;11.30;99.90;;;12.32;97.07;100292.78;6104657;23;20038;-88
2021/10/04 00:24:12;;;;;;;3.10;0.82;;;11.30;99.90;;;12.35;96.46;100287.25;6081847;23;20010;-89
2021/10/04 00:26:38;;;;;;;2.42;0.77;;;11.40;99.90;;;12.47;96.04;100292.63;6081415;23;20501;-89
2021/10/04 00:29:05;;;;;;;1.98;0.70;;;11.30;99.90;;;12.40;96.17;100295.31;6083005;23;20010;-88
2021/10/04 00:31:32;;;;;;;1.92;0.88;;;11.40;99.90;;;12.37;96.88;100309.25;6082195;23;20120;-86
2021/10/04 00:33:59;;;;;;;4.22;0.73;;;11.30;99.90;;;12.37;96.43;100298.88;6107975;23;20002;-87
2021/10/04 00:36:25;;;;;;;3.05;0.90;;;11.40;99.90;;;12.27;96.50;100298.72;6106974;23;20298;-86
2021/10/04 00:38:51;;;;;;;1.60;0.88;;;11.40;99.90;;;12.37;95.83;100292.47;6082592;23;20365;-86
2021/10/04 00:41:18;;;;;;;4.47;0.88;;;11.40;99.90;;;12.41;95.95;100302.53;6082687;23;20010;-87
2021/10/04 00:43:44;;;;;;;1.95;0.65;;;11.50;99.90;;;12.43;95.80;100304.94;6081095;23;20498;-87
2021/10/04 00:46:10;;;;;;;2.00;0.60;;;11.40;99.90;;;12.44;95.67;100307.38;6081015;23;20038;-86
2021/10/04 00:48:36;;;;;;;1.70;1.02;;;11.40;99.90;;;12.44;95.43;100312.16;6103895;23;20006;-87
2021/10/04 00:51:02;;;;;;;2.65;0.65;;;11.50;99.90;;;12.48;95.18;100311.03;6079766;23;20014;-84
2021/10/04 00:53:28;;;;;;;1.85;0.85;;;11.40;99.90;;;12.53;94.74;100309.88;6080240;23;20082;-86
2021/10/04 00:55:55;;;;;;;3.47;0.68;;;11.50;99.90;;;12.53;94.83;100313.50;6080908;23;20006;-88
2021/10/04 00:58:21;;;;;;;1.63;0.82;;;11.50;99.90;;;12.46;94.38;100326.59;6080864;23;20024;-85
2021/10/04 01:00:48;;;;;;;3.53;1.08;;;11.40;99.90;;;12.47;95.25;100328.22;6081298;23;20014;-86
2021/10/04 01:03:16;;;;;;;1.67;0.70;;;11.50;99.90;;;12.44;94.93;100326.97;6081680;23;20018;-86
2021/10/04 01:05:42;;;;;;;1.90;0.65;;;11.40;99.90;;;12.37;95.51;100331.66;6108852;23;20054;-85
2021/10/04 01:08:08;;;;;;;3.20;0.90;;;11.40;99.90;;;12.37;95.30;100331.66;6085366;23;20010;-84
2021/10/04 01:10:35;;;;;;;5.47;0.95;;;11.30;99.90;;;12.37;95.63;100323.25;6091838;23;20013;-86
2021/10/04 01:13:02;;;;;;;2.00;0.90;;;11.30;99.90;;;12.33;95.87;100326.00;6082682;23;20006;-87
2021/10/04 01:15:27;;;;;;;2.28;0.80;;;11.30;99.90;;;12.28;95.92;100333.94;6104446;23;20009;-88
2021/10/04 01:17:53;;;;;;;4.13;0.88;;;11.20;99.90;;;12.26;96.28;100339.94;6104367;23;20106;-86
2021/10/04 01:20:26;;;;;;;1.90;0.57;;;11.30;99.90;;;12.34;96.18;100332.41;6078404;23;20006;-87
2021/10/04 01:22:55;;;;;;;1.85;0.90;;;11.20;99.90;;;12.28;96.22;100317.94;6078439;23;20483;-87
2021/10/04 01:25:22;;;;;;;2.42;0.80;;;11.30;99.90;;;12.39;95.23;100320.91;6102987;23;20010;-86
2021/10/04 01:27:52;;;;;;;0.77;0.63;;;11.30;99.90;;;12.32;95.80;100320.81;6080108;23;20014;-88
2021/10/04 01:30:25;;;;;;;2.70;1.05;;;11.20;99.90;;;12.31;95.99;100310.78;6081419;23;20341;-88
2021/10/04 01:32:54;;;;;;;2.58;0.75;;;11.20;99.90;;;12.37;95.81;100318.47;6082641;23;20014;-86
2021/10/04 01:35:21;;;;;;;3.33;0.88;;;11.20;99.90;;;12.28;96.10;100315.16;6110424;23;20013;-88
2021/10/04 01:37:47;;;;;;;2.85;0.77;;;11.20;99.90;;;12.30;96.29;100326.75;6108263;23;20034;-88
2021/10/04 01:40:17;;;;;;;2.47;0.80;;;11.20;99.90;;;12.24;96.29;100324.66;6080250;23;20093;-87
2021/10/04 01:42:44;;;;;;;1.92;0.70;;;11.10;99.90;;;12.22;96.44;100335.44;6077803;23;20010;-86
2021/10/04 01:45:24;;;;;;;4.32;1.27;;;11.20;99.90;;;12.21;96.47;100322.63;6077919;23;20085;-87
2021/10/04 01:47:52;;;;;;;2.47;0.55;;;11.10;99.90;;;12.25;96.44;100327.09;6078043;23;20072;-88
2021/10/04 01:50:19;;;;;;;1.65;0.63;;;11.20;99.90;;;12.30;95.79;100326.75;6077935;23;20010;-87
2021/10/04 01:52:46;;;;;;;2.67;0.75;;;11.20;99.90;;;12.28;96.20;100329.16;6077838;23;20437;-88
2021/10/04 01:55:13;;;;;;;1.20;0.63;;;11.20;99.90;;;12.35;95.76;100331.25;6078589;23;20011;-88
2021/10/04 01:57:40;;;;;;;1.30;0.70;;;11.30;99.90;;;12.45;95.17;100344.59;6077843;23;20017;-86
2021/10/04 02:00:15;;;;;;;4.32;0.85;;;11.30;99.90;;;12.44;95.59;100335.38;6104388;23;20441;-86
2021/10/04 02:02:45;;;;;;;4.28;1.00;;;11.40;99.90;;;12.44;95.56;100335.38;6078207;23;20010;-86
2021/10/04 02:05:13;;;;;;;1.10;0.50;;;11.30;99.90;;;12.44;95.18;100338.19;6077937;23;20066;-86
2021/10/04 02:07:40;;;;;;;3.83;0.73;;;11.40;99.90;;;12.27;95.79;100327.53;6102855;23;20354;-86
2021/10/04 02:10:20;;;;;;;1.13;0.50;;;11.30;99.90;;;12.33;96.00;100325.22;6078368;23;20433;-86
2021/10/04 02:12:47;;;;;;;2.63;0.65;;;11.30;99.90;;;12.32;95.61;100330.00;6078384;23;20009;-85
2021/10/04 02:15:16;;;;;;;1.75;0.60;;;11.20;99.90;;;12.24;96.13;100322.69;6077679;23;20006;-85
2021/10/04 02:17:43;;;;;;;1.52;0.60;;;11.10;99.90;;;12.25;96.18;100329.09;6076748;23;20010;-88
2021/10/04 02:20:17;;;;;;;2.40;0.80;;;11.10;99.90;;;12.23;96.43;100323.88;6074783;23;20014;-87
2021/10/04 02:22:44;;;;;;;2.63;0.73;;;11.10;99.90;;;12.19;97.04;100330.59;6100221;23;20014;-87
2021/10/04 02:25:13;;;;;;;1.90;0.80;;;11.10;99.90;;;12.27;96.65;100313.53;6074907;23;20022;-88
2021/10/04 02:27:40;;;;;;;1.20;0.70;;;11.00;99.90;;;12.20;96.83;100326.63;6074844;23;20094;-85
2021/10/04 02:30:20;;;;;;;1.67;0.80;;;11.00;99.90;;;12.18;97.66;100323.38;6074477;23;20105;-88
2021/10/04 02:32:46;;;;;;;2.67;0.75;;;11.00;99.90;;;12.15;97.49;100320.16;6099587;23;20045;-87
2021/10/04 02:35:13;;;;;;;0.65;0.50;;;11.00;99.90;;;12.14;97.58;100320.53;6075124;23;20006;-86
2021/10/04 02:37:41;;;;;;;3.38;0.80;;;11.10;99.90;;;12.14;97.77;100335.31;6074803;23;20042;-87
2021/10/04 02:40:10;;;;;;;1.50;0.50;;;11.00;99.90;;;12.21;97.55;100333.81;6100900;23;20110;-89
2021/10/04 02:42:37;;;;;;;3.40;1.30;;;11.00;99.90;;;12.24;97.21;100327.47;6076621;23;20021;-89
2021/10/04 02:45:07;;;;;;;3.08;0.70;;;11.10;99.90;;;12.25;97.40;100324.31;6076295;23;20014;-87
2021/10/04 02:47:34;;;;;;;0.80;0.70;;;11.10;99.90;;;12.22;96.88;100330.66;6076263;23;20010;-87
2021/10/04 02:50:00;;;;;;;2.25;0.82;;;11.10;99.90;;;12.26;96.27;100328.72;6076129;23;20060;-85
2021/10/04 02:52:26;;;;;;;1.90;0.70;;;11.10;99.90;;;12.33;96.41;100339.22;6076984;23;20006;-88
2021/10/04 02:54:52;;;;;;;1.08;0.80;;;11.20;99.90;;;12.25;96.79;100348.69;6076557;23;20050;-87
2021/10/04 02:57:17;;;;;;;4.68;0.90;;;11.10;99.90;;;12.24;96.75;100350.69;6076725;23;20017;-89
2021/10/04 02:59:43;;;;;;;1.60;0.60;;;11.20;99.90;;;12.20;96.93;100343.44;6077242;23;20045;-86
2021/10/04 03:02:09;;;;;;;1.48;0.70;;;11.10;99.90;;;12.28;96.54;100345.13;6076742;23;20018;-87
2021/10/04 03:04:35;;;;;;;2.17;0.60;;;11.20;99.90;;;12.30;96.35;100348.34;6076742;23;20074;-87
2021/10/04 03:07:01;;;;;;;4.45;0.63;;;11.10;99.90;;;12.17;97.06;100338.59;6076708;23;20341;-87
2021/10/04 03:09:27;;;;;;;3.97;0.73;;;11.10;99.90;;;12.28;97.14;100343.16;6077147;23;20010;-86
2021/10/04 03:11:53;;;;;;;3.50;0.68;;;11.10;99.90;;;12.27;97.04;100346.31;6076843;23;20002;-88
2021/10/04 03:14:19;;;;;;;3.95;0.70;;;11.10;99.90;;;12.32;97.04;100351.59;6075552;23;20010;-85
2021/10/04 03:16:45;;;;;;;5.13;0.60;;;11.10;99.90;;;12.27;96.94;100355.53;6075639;23;20010;-85
2021/10/04 03:19:11;;;;;;;2.15;0.68;;;11.20;99.90;;;12.23;96.80;100356.66;6075398;23;20014;-86
2021/10/04 03:21:37;;;;;;;1.23;0.57;;;11.20;99.90;;;12.26;97.00;100361.50;6102004;23;20441;-89
2021/10/04 03:24:04;;;;;;;3.60;1.05;;;11.20;99.90;;;12.32;96.68;100371.22;6077105;23;20453;-89
2021/10/04 03:26:30;;;;;;;3.40;0.50;;;11.30;99.90;;;12.39;96.11;100372.13;6077469;23;20318;-88
2021/10/04 03:28:56;;;;;;;3.53;1.17;;;11.20;99.90;;;12.38;96.29;100373.31;6077929;23;20006;-87
2021/10/04 03:31:22;;;;;;;1.40;0.60;;;11.30;99.90;;;12.34;96.74;100385.63;6082006;23;20006;-88
2021/10/04 03:33:47;;;;;;;1.38;0.57;;;11.20;99.90;;;12.33;96.26;100376.41;6080828;23;20433;-89
2021/10/04 03:36:13;;;;;;;2.75;0.88;;;11.20;99.90;;;12.37;96.65;100382.06;6102348;23;20054;-89
2021/10/04 03:38:40;;;;;;;1.92;0.70;;;11.20;99.90;;;12.43;96.52;100381.38;6077562;23;20038;-90
2021/10/04 03:41:07;;;;;;;1.55;0.55;;;11.20;99.90;;;12.43;96.29;100386.16;6102757;23;20006;-88
2021/10/04 03:43:32;;;;;;;2.55;0.40;;;11.20;99.90;;;12.53;95.82;100396.72;6076708;23;20006;-87
2021/10/04 03:45:58;;;;;;;1.45;0.77;;;11.30;99.90;;;12.41;96.62;100406.16;6076294;23;20013;-87
2021/10/04 03:48:24;;;;;;;5.40;0.95;;;11.30;99.90;;;12.39;96.76;100416.94;6102264;23;20341;-87
2021/10/04 03:50:52;;;;;;;4.15;0.50;;;11.40;99.90;;;12.45;96.40;100420.22;6076089;23;20021;-87
2021/10/04 03:53:18;;;;;;;3.55;0.80;;;11.40;99.90;;;12.45;96.24;100423.84;6101976;23;20006;-86
2021/10/04 03:55:44;;;;;;;2.60;0.60;;;11.30;99.90;;;12.51;96.37;100427.13;6076345;23;20049;-87
2021/10/04 03:58:10;;;;;;;1.08;0.68;;;11.30;99.90;;;12.43;96.15;100429.00;6076435;23;20062;-88
2021/10/04 04:00:36;;;;;;;3.30;0.50;;;11.40;99.90;;;12.48;96.25;100428.69;6077311;23;20382;-89
2021/10/04 04:03:04;;;;;;;2.70;0.60;;;11.40;99.90;;;12.58;95.55;100424.44;6076814;23;20014;-90
2021/10/04 04:05:32;;;;;;;1.77;0.73;;;11.40;99.90;;;12.55;96.03;100422.38;6102299;23;20393;-89
2021/10/04 04:07:58;;;;;;;0.60;0.60;;;11.40;99.90;;;12.57;95.76;100425.63;6108873;23;20354;-90
2021/10/04 04:10:24;;;;;;;0.47;0.38;;;11.50;99.90;;;12.61;95.57;100421.69;6082205;23;20006;-87
2021/10/04 04:12:50;;;;;;;3.15;0.70;;;11.50;99.90;;;12.64;94.89;100412.53;6104260;23;20020;-89
2021/10/04 04:15:17;;;;;;;1.50;0.90;;;11.50;99.90;;;12.75;95.14;100414.69;6101268;23;20018;-87
2021/10/04 04:17:43;;;;;;;1.20;0.50;;;11.50;99.90;;;12.65;95.69;100421.72;6076570;23;20014;-89
2021/10/04 04:20:11;;;;;;;1.08;0.63;;;11.50;99.90;;;12.67;95.55;100425.78;6077126;23;20442;-86
2021/10/04 04:22:37;;;;;;;1.70;0.68;;;11.60;99.90;;;12.67;94.78;100413.75;6077546;23;20010;-88
2021/10/04 04:25:05;;;;;;;2.85;0.88;;;11.60;99.90;;;12.72;94.42;100421.84;6100571;23;20022;-87
2021/10/04 04:27:31;;;;;;;4.95;0.90;;;11.60;99.90;;;12.78;94.43;100416.72;6076690;23;20450;-88
2021/10/04 04:29:58;;;;;;;2.13;0.63;;;11.60;99.90;;;12.78;94.39;100419.53;6076589;23;20013;-88
2021/10/04 04:32:24;;;;;;;2.53;0.85;;;11.70;99.90;;;12.80;94.10;100422.75;6076859;23;20017;-87
2021/10/04 04:34:50;;;;;;;1.48;0.50;;;11.70;99.90;;;12.83;93.82;100424.78;6099945;23;20485;-87
2021/10/04 04:37:16;;;;;;;3.97;0.75;;;11.70;99.90;;;12.76;94.08;100416.28;6076152;23;20340;-89
2021/10/04 04:39:41;;;;;;;4.82;0.82;;;11.70;99.90;;;12.86;93.84;100413.63;6074893;23;20038;-87
2021/10/04 04:42:08;;;;;;;2.47;0.70;;;11.70;99.90;;;12.83;94.11;100414.41;6075853;23;20036;-87
2021/10/04 04:44:34;;;;;;;8.27;0.90;;;11.70;99.90;;;12.91;93.85;100420.88;6075064;23;20010;-88
2021/10/04 04:47:00;;;;;;;1.17;0.52;;;11.70;99.90;;;12.81;93.96;100425.16;6101836;23;20014;-85
2021/10/04 04:49:26;;;;;;;4.38;0.75;;;11.70;99.90;;;12.76;94.43;100424.69;6099902;23;20034;-87
2021/10/04 04:51:59;;;;;;;4.45;0.65;;;11.70;99.90;;;12.84;93.79;100421.63;6077113;23;20142;-87
2021/10/04 04:54:27;;;;;;;2.20;0.45;;;11.70;99.90;;;12.78;93.81;100423.13;6076428;23;20006;-86
2021/10/04 04:56:59;;;;;;;3.30;0.47;;;11.60;99.90;;;12.79;94.34;100421.94;6102764;23;20014;-89
2021/10/04 04:59:25;;;;;;;6.72;1.00;;;11.70;99.90;;;12.74;94.19;100422.28;6101925;23;20011;-88
2021/10/04 05:01:51;;;;;;;2.20;0.70;;;11.60;99.90;;;12.56;95.45;100427.59;6078801;23;20021;-90
2021/10/04 05:04:17;;;;;;;3.50;0.50;;;11.50;99.90;;;12.57;94.96;100434.84;6076056;23;20014;-89
2021/10/04 05:06:43;;;;;;;3.88;0.70;;;11.60;99.90;;;12.68;95.03;100435.00;6075793;23;20341;-89
2021/10/04 05:09:10;;;;;;;2.90;0.60;;;11.50;99.90;;;12.69;94.82;100423.41;6101945;23;20006;-87
2021/10/04 05:11:36;;;;;;;4.45;0.68;;;11.60;99.90;;;12.76;94.85;100417.09;6076653;23;20010;-89
2021/10/04 05:14:02;;;;;;;3.22;0.88;;;11.50;99.90;;;12.74;94.92;100425.09;6100915;23;20013;-88
2021/10/04 05:16:28;;;;;;;1.50;0.60;;;11.50;99.90;;;12.71;94.76;100425.03;6077942;23;20097;-88
2021/10/04 05:18:54;;;;;;;2.72;1.13;;;11.50;99.90;;;12.76;94.39;100435.91;6077113;23;20508;-89
2021/10/04 05:21:20;;;;;;;2.75;1.13;;;11.60;99.90;;;12.80;94.66;100434.78;6105223;23;20093;-87
2021/10/04 05:23:46;;;;;;;4.63;1.00;;;11.60;99.90;;;12.82;94.16;100443.59;6089375;23;20017;-85
2021/10/04 05:26:12;;;;;;;3.40;0.80;;;11.60;99.90;;;12.76;94.27;100444.31;6088274;23;20014;-88
2021/10/04 05:28:38;;;;;;;2.50;0.50;;;11.60;99.90;;;12.87;93.79;100445.28;6084909;23;20006;-88
2021/10/04 05:31:04;;;;;;;1.27;0.60;;;11.70;99.90;;;12.85;94.04;100439.22;6076635;23;20321;-86
2021/10/04 05:33:30;;;;;;;1.30;0.70;;;11.70;99.90;;;12.87;93.95;100456.50;6077126;23;20014;-88
2021/10/04 05:35:56;;;;;;;3.33;0.68;;;11.70;99.90;;;12.92;93.67;100464.56;6101920;23;20017;-85
2021/10/04 05:38:23;;;;;;;2.83;0.60;;;11.70;99.90;;;12.87;93.80;100462.91;6075597;23;20018;-87
2021/10/04 05:40:50;;;;;;;3.13;0.88;;;11.70;99.90;;;12.91;93.81;100462.94;6076530;23;20010;-86
2021/10/04 05:43:16;;;;;;;1.80;0.88;;;11.80;99.90;;;12.93;93.60;100474.59;6075873;23;20441;-86
2021/10/04 05:45:42;;;;;;;3.42;0.80;;;11.80;99.90;;;12.93;93.40;100475.41;6101526;23;20042;-86
2021/10/04 05:48:08;;;;;;;1.20;0.75;;;11.80;99.90;;;12.95;92.61;100463.81;6100782;23;20006;-85
2021/10/04 05:50:34;;;;;;;0.98;0.52;;;11.80;99.90;;;13.00;92.82;100467.09;6102271;23;20070;-85
2021/10/04 05:53:00;;;;;;;3.65;0.73;;;11.80;99.90;;;13.03;92.89;100476.75;6117199;23;20025;-85
2021/10/04 05:55:28;;;;;;;6.10;1.00;;;11.90;99.90;;;13.02;92.49;100472.31;6078791;23;20085;-84
2021/10/04 05:57:54;;;;;;;1.77;0.60;;;11.90;99.90;;;13.08;92.59;100479.22;6075822;23;20013;-84
2021/10/04 06:00:20;;;;;;;1.45;0.80;;;11.90;99.90;;;13.10;92.46;100488.88;6101799;23;20014;-83
2021/10/04 06:02:46;;;;;;;3.20;0.93;;;11.90;99.90;;;13.12;92.65;100494.94;6100365;23;20014;-86
2021/10/04 06:05:12;;;;;;;2.17;0.98;;;12.00;99.90;;;13.10;92.63;100493.69;6075288;23;20014;-86
2021/10/04 06:07:38;;;;;;;3.95;0.80;;;11.90;99.90;;;13.17;92.33;100494.59;6100010;23;20007;-86
2021/10/04 06:10:10;;;;;;;4.03;0.90;;;12.00;99.90;;;13.12;92.70;100494.13;6101036;23;20007;-86
2021/10/04 06:12:42;;;;;;;2.63;0.82;;;12.00;99.90;;;13.21;91.97;100494.66;6076082;23;20011;-86
2021/10/04 06:15:10;;;;;;;5.95;0.75;;;12.00;99.90;;;13.20;91.79;100495.84;6100785;23;20003;-87
2021/10/04 06:17:37;;;;;;;5.50;0.90;;;12.00;99.90;;;13.14;92.22;100500.97;6100753;23;20018;-85
2021/10/04 06:20:05;;;;;;;3.53;1.08;;;12.10;99.90;;;13.30;91.47;100514.00;6074160;23;20352;-84
2021/10/04 06:22:30;;;;;;;1.60;0.60;;;12.10;99.90;;;13.26;92.01;100513.94;6074270;23;20014;-86
2021/10/04 06:24:56;;;;;;;2.47;0.68;;;12.00;99.90;;;13.27;91.76;100525.97;6099880;23;20098;-84
2021/10/04 06:27:23;;;;;;;4.53;0.80;;;12.00;99.90;;;13.24;91.78;100526.75;6100133;23;20040;-85
2021/10/04 06:29:49;;;;;;;3.90;0.70;;;12.10;99.90;;;13.38;91.50;100540.97;6100105;23;20007;-85
2021/10/04 06:32:14;;;;;;;3.92;0.90;;;12.10;99.90;;;13.32;91.75;100548.91;6073406;23;20445;-85
2021/10/04 06:34:42;;;;;;;6.95;0.90;;;12.20;99.90;;;13.36;91.08;100541.34;6074156;23;20007;-87
2021/10/04 06:37:08;;;;;;;3.70;0.77;;;12.20;99.90;;;13.41;91.30;100537.41;6075192;23;20011;-86
2021/10/04 06:39:35;;;;;;;2.03;0.80;;;12.20;99.90;;;13.36;90.76;100543.34;6074320;23;20017;-88
2021/10/04 06:42:02;;;;;;;2.13;0.80;;;12.20;99.90;;;13.36;91.00;100538.53;6099639;23;20021;-87
2021/10/04 06:44:27;;;;;;;3.03;0.63;;;12.30;99.90;;;13.46;91.03;100549.09;6074205;23;20139;-87
2021/10/04 06:46:53;;;;;;;1.48;0.82;;;12.30;99.90;;;13.45;90.51;100558.69;6075101;23;20006;-88
2021/10/04 06:49:19;;;;;;;4.35;1.42;;;12.30;99.90;;;13.39;90.99;100562.25;6075330;23;20302;-87
2021/10/04 06:51:45;;;;;;;3.60;1.00;;;12.30;99.90;;;13.43;91.15;100563.06;6101737;23;20002;-89
2021/10/04 06:54:11;;;;;;;3.03;0.80;;;12.40;99.90;;;13.49;90.91;100567.97;6076685;23;20011;-88
2021/10/04 06:56:37;;;;;;;3.45;1.00;;;12.40;99.90;;;13.44;91.32;100573.13;6076922;23;20432;-87
2021/10/04 06:59:03;;;;;;;5.85;1.02;;;12.40;99.90;;;13.53;91.08;100582.88;6076556;23;20010;-86
2021/10/04 07:01:30;;;;;;;2.72;0.95;;;12.40;99.90;;;13.52;90.70;100580.44;6102853;23;20204;-87
2021/10/04 07:03:55;;;;;;;2.83;0.70;;;12.40;99.90;;;13.56;91.05;100584.91;6076966;23;20154;-89
2021/10/04 07:06:21;;;;;;;2.22;1.02;;;12.40;99.90;;;13.58;91.49;100587.34;6078458;23;20105;-89
2021/10/04 07:08:47;;;;;;;1.10;0.60;;;12.50;99.90;;;13.59;90.78;100581.34;6102451;23;20013;-82
2021/10/04 07:11:13;;;;;;;1.15;0.70;;;12.50;99.90;;;13.69;90.81;100577.06;6101663;23;20010;-86
2021/10/04 07:13:39;;;;;;;3.13;0.90;;;12.60;99.90;;;13.80;90.56;100583.66;6075336;23;20010;-88
2021/10/04 07:16:05;;;;;;;1.52;0.68;;;12.60;99.90;;;13.91;89.57;100578.16;6075869;23;20033;-88
2021/10/04 07:18:31;;;;;;;3.28;0.95;;;12.70;99.90;;;14.02;88.68;100582.72;6100167;23;20023;-88
2021/10/04 07:20:57;;;;;;;2.55;0.90;;;12.90;99.90;;;14.13;88.42;100572.41;6075688;23;20058;-87
2021/10/04 07:23:23;;;;;;;3.80;0.85;;;12.90;99.90;;;14.01;88.88;100578.28;6076493;23;20011;-90
2021/10/04 07:25:49;;;;;;;2.58;0.82;;;13.00;99.90;;;14.11;88.13;100582.41;6099761;23;20010;-88
2021/10/04 07:28:15;;;;;;;1.48;0.50;;;13.10;99.90;;;14.17;88.08;100583.69;6076627;23;20061;-90
2021/10/04 07:30:41;;;;;;;3.08;0.85;;;13.00;99.90;;;14.14;88.38;100579.63;6077397;23;20015;-87
2021/10/04 07:33:07;;;;;;;1.92;0.60;;;13.10;99.90;;;14.30;87.79;100584.22;6077619;23;20038;-86
2021/10/04 07:35:34;;;;;;;1.60;0.60;;;13.20;99.90;;;14.23;87.93;100593.38;6103763;23;20500;-88
2021/10/04 07:38:01;;;;;;;3.97;1.25;;;13.10;99.90;;;14.31;88.14;100599.88;6102127;23;20517;-86
2021/10/04 07:40:28;;;;;;;5.18;0.70;;;13.10;99.90;;;14.20;87.93;100591.34;6075959;23;20361;-85
2021/10/04 07:42:54;;;;;;;1.83;0.65;;;13.20;99.90;;;14.33;87.05;100592.72;6076348;23;20349;-87
2021/10/04 07:45:21;;;;;;;3.22;0.60;;;13.20;99.90;;;14.47;86.68;100598.50;6076697;23;20006;-85
2021/10/04 07:47:47;;;;;;;2.10;0.95;;;13.30;99.90;;;14.30;86.74;100595.47;6076557;23;20010;-86
2021/10/04 07:50:15;;;;;;;3.05;0.90;;;13.30;99.90;;;14.25;87.68;100600.22;6076191;23;20030;-89
2021/10/04 07:52:44;;;;;;;5.10;0.60;;;13.30;99.90;;;14.35;87.07;100584.72;6076598;23;20010;-88
2021/10/04 07:55:12;;;;;;;6.78;0.85;;;13.40;99.90;;;14.35;86.69;100581.94;6101374;23;20007;-86
2021/10/04 07:57:38;;;;;;;1.83;0.70;;;13.40;99.90;;;14.40;86.38;100589.19;6100292;23;20037;-85
2021/10/04 08:00:07;;;;;;;2.97;0.80;;;13.40;99.90;;;14.36;87.30;100589.13;6102098;23;20096;-86
2021/10/04 08:02:36;;;;;;;3.20;0.70;;;13.30;99.90;;;14.42;86.78;100587.59;6076707;23;20018;-85
2021/10/04 08:05:04;;;;;;;2.58;0.75;;;13.40;99.90;;;14.40;87.35;100595.59;6076559;23;20069;-86
2021/10/04 08:07:30;;;;;;;7.75;0.98;;;13.40;99.90;;;14.44;86.57;100596.47;6076795;23;20444;-87
2021/10/04 08:09:56;;;;;;;1.95;0.70;;;13.50;99.90;;;14.47;87.59;100601.31;6079448;23;20309;-86
2021/10/04 08:12:25;;;;;;;2.92;0.73;;;13.40;99.90;;;14.52;86.33;100600.13;6094372;23;20021;-85
2021/10/04 08:14:53;;;;;;;2.60;0.90;;;13.50;99.90;;;14.53;87.07;100601.75;6082037;23;20014;-86
2021/10/04 08:17:19;;;;;;;3.42;0.65;;;13.50;99.90;;;14.67;86.65;100588.66;6075568;23;20010;-85
2021/10/04 08:19:45;;;;;;;5.22;1.27;;;13.60;99.90;;;14.61;86.42;100595.81;6074304;23;20078;-85
2021/10/04 08:22:12;;;;;;;1.88;0.57;;;13.60;99.90;;;14.75;85.28;100601.59;6077407;23;20014;-86
2021/10/04 08:24:38;;;;;;;1.02;0.63;;;13.70;99.90;;;14.98;85.12;100594.94;6103435;23;20013;-86
2021/10/04 08:27:04;;;;;;;4.20;1.27;;;13.80;99.90;;;15.01;85.23;100597.78;6102744;23;20022;-85
2021/10/04 08:29:30;;;;;;;2.03;0.60;;;14.00;99.90;;;15.21;85.17;100604.78;6079025;23;20006;-84
2021/10/04 08:31:55;;;;;;;6.70;1.13;;;14.20;99.90;;;15.60;82.77;100596.66;6105109;23;20002;-83
2021/10/04 08:34:21;;;;;;;1.83;0.63;;;14.40;99.90;;;15.64;82.05;100603.09;6102749;23;20011;-84
2021/10/04 08:36:47;;;;;;;2.08;0.73;;;14.50;99.90;;;15.81;80.78;100607.19;6105795;23;20017;-85
2021/10/04 08:39:13;;;;;;;2.42;0.82;;;14.70;99.90;;;15.84;81.38;100595.16;6079301;23;20010;-84
2021/10/04 08:41:40;;;;;;;2.30;0.65;;;14.80;99.90;;;15.95;80.45;100600.84;6101043;23;20444;-84
2021/10/04 08:44:12;;;;;;;2.67;0.73;;;14.90;99.90;;;15.88;79.84;100606.44;6075585;23;20448;-84
2021/10/04 08:46:45;;;;;;;2.17;0.60;;;14.90;99.90;;;15.94;80.00;100618.94;6081652;23;20034;-83
2021/10/04 08:49:17;;;;;;;3.33;1.00;;;14.80;99.90;;;15.61;80.75;100614.31;6084502;23;20029;-83
2021/10/04 08:51:49;;;;;;;4.18;0.57;;;14.70;99.90;;;15.60;81.29;100598.66;6085649;23;20042;-86
2021/10/04 08:54:24;;;;;;;2.45;0.90;;;14.60;99.90;;;15.62;80.66;100576.53;6088189;23;20401;-83
2021/10/04 08:56:52;;;;;;;2.13;0.73;;;14.60;99.90;;;15.58;82.00;100581.31;6102524;23;20065;-83
2021/10/04 08:59:18;;;;;;;2.85;0.90;;;14.60;99.90;;;15.60;81.99;100581.75;6075853;23;20439;-85
2021/10/04 09:01:44;;;;;;;5.40;1.30;;;14.60;99.90;;;15.41;81.40;100582.81;6101295;23;20022;-83
2021/10/04 09:04:10;;;;;;;4.10;0.88;;;14.60;99.90;;;15.57;81.41;100588.19;6080540;23;20006;-83
2021/10/04 09:06:40;;;;;;;0.98;0.77;;;14.60;99.90;;;15.59;81.49;100580.94;6081236;23;20016;-82
2021/10/04 09:09:11;;;;;;;6.30;0.70;;;14.60;99.90;;;15.80;81.11;100575.41;6103862;23;20011;-83
2021/10/04 09:11:48;;;;;;;1.80;1.00;;;14.70;99.90;;;15.84;80.45;100575.44;6079241;23;20002;-84
2021/10/04 09:14:31;;;;;;;2.35;1.00;;;14.80;99.90;;;15.78;80.24;100586.28;6079309;23;20013;-84
2021/10/04 09:17:11;;;;;;;3.45;0.65;;;14.80;99.90;;;15.71;81.58;100589.06;6094521;23;20087;-87
2021/10/04 09:19:42;;;;;;;5.65;0.93;;;14.80;99.90;;;15.69;81.21;100610.38;6107164;23;20034;-85
2021/10/04 09:22:19;;;;;;;2.08;0.68;;;14.80;99.90;;;15.89;81.41;100591.97;6057429;23;20034;-86
2021/10/04 09:24:49;;;;;;;3.30;0.80;;;15.00;99.90;;;16.34;79.20;100602.56;6058795;23;20014;-86
2021/10/04 09:27:42;;;;;;;2.40;0.90;;;15.20;99.90;;;16.54;78.50;100602.22;6107161;23;20061;-85
2021/10/04 09:30:24;;;;;;;1.98;0.90;;;15.30;99.90;;;16.65;78.50;100608.72;6109119;23;20003;-85
2021/10/04 09:32:59;;;;;;;3.97;1.10;;;15.50;99.90;;;16.40;78.69;100611.47;6082734;23;20026;-85
2021/10/04 09:35:32;;;;;;;6.30;0.80;;;15.50;99.90;;;16.33;78.68;100615.06;6081824;23;20010;-85
2021/10/04 09:37:58;;;;;;;5.15;1.08;;;15.40;99.90;;;16.34;79.49;100604.63;6107456;23;20018;-86
2021/10/04 09:40:51;;;;;;;3.55;0.70;;;15.40;99.90;;;16.52;79.04;100607.47;6085437;23;20010;-86
2021/10/04 09:43:31;;;;;;;2.45;0.95;;;15.40;99.90;;;16.46;78.72;100611.88;6083048;23;20017;-86
2021/10/04 09:46:08;;;;;;;3.58;1.33;;;15.40;99.90;;;16.67;77.93;100626.03;6064255;23;20010;-85
2021/10/04 09:48:35;;;;;;;3.70;0.70;;;15.40;99.90;;;16.22;79.35;100625.50;6081451;23;20025;-84
2021/10/04 09:51:19;;;;;;;3.03;0.73;;;15.30;99.90;;;16.07;79.30;100617.38;6081081;23;20006;-85
2021/10/04 09:54:11;;;;;;;1.77;0.60;;;15.20;99.90;;;16.17;79.02;100605.34;6083924;23;20021;-85
2021/10/04 09:56:39;;;;;;;2.03;0.88;;;15.20;99.90;;;16.80;78.03;100601.91;6060835;23;20290;-85
2021/10/04 09:59:06;;;;;;;3.78;0.70;;;15.50;99.90;;;17.46;75.29;100605.13;6062742;23;20021;-86
2021/10/04 10:01:33;;;;;;;5.13;0.85;;;16.00;99.90;;;17.75;73.61;100615.97;6060597;23;20053;-83
2021/10/04 10:04:00;;;;;;;4.63;0.98;;;16.30;99.90;;;17.58;71.46;100619.63;6081867;23;20007;-84
2021/10/04 10:06:28;;;;;;;1.77;0.63;;;16.50;99.90;;;17.55;72.67;100620.47;6081992;23;20010;-86
2021/10/04 10:08:54;;;;;;;5.22;1.00;;;16.40;99.90;;;17.49;73.22;100622.06;6081241;23;20010;-83
2021/10/04 10:11:23;;;;;;;3.30;1.08;;;16.50;99.90;;;17.92;72.49;100625.59;6083141;23;20002;-85
2021/10/04 10:13:49;;;;;;;3.25;0.73;;;16.60;99.90;;;18.00;71.69;100620.72;6107421;23;20018;-84
2021/10/04 10:16:33;;;;;;;3.35;1.10;;;16.80;99.90;;;17.78;71.44;100622.81;6084952;23;20007;-84